WetterOnline ( https://www.wetteronline.ch )

Wetter aktuell Usedom

Aktuelles Wetter: Ueckermünde (7m)

6-stündlich | Neueste Meldungen
Ortszeit Temperatur Wetter
Mi, 11.12. 1:00 0.4° C wolkig
Di, 10.12. 19:00 0.6° C wolkenlos
Di, 10.12. 13:00 5.1° C wolkenlos
Di, 10.12. 7:00 3.0° C wolkenlos
Di, 10.12. 1:00 4.4° C leicht bewölkt
Mo, 09.12. 19:00 6.5° C leichter Regen
Mo, 09.12. 13:00 8.3° C bewölkt
Mo, 09.12. 7:00 5.4° C wolkenlos
Ortszeit Temperatur Wetter
Mi, 11.12. 2:00 1.2° C wolkig
Mi, 11.12. 1:40 1.0° C wolkig
Mi, 11.12. 1:30 0.8° C wolkig
Mi, 11.12. 1:20 0.8° C wolkig
Mi, 11.12. 1:10 0.7° C wolkig
Mi, 11.12. 1:00 0.4° C wolkig
Mi, 11.12. 0:40 0.2° C wolkig
Mi, 11.12. 0:30 0.2° C wolkig
Mi, 11.12. 0:00 0.1° C wolkig
Ortszeit Relative Feuchte Sichtweite
Mi, 11.12. 1:00 91% 21 km
Di, 10.12. 19:00 92% 18 km
Di, 10.12. 13:00 70% 27 km
Di, 10.12. 7:00 72% 70 km
Di, 10.12. 1:00 77% 70 km
Mo, 09.12. 19:00 89% 50 km
Mo, 09.12. 13:00 69% 55 km
Mo, 09.12. 7:00 82% 65 km
Ortszeit Relative Feuchte Sichtweite
Mi, 11.12. 2:00 86% 30 km
Mi, 11.12. 1:40 87% -
Mi, 11.12. 1:30 88% 18 km
Mi, 11.12. 1:20 88% -
Mi, 11.12. 1:10 89% -
Mi, 11.12. 1:00 91% 21 km
Mi, 11.12. 0:40 93% -
Mi, 11.12. 0:30 94% 16 km
Mi, 11.12. 0:00 94% 19 km
Ortszeit Niederschlagsmenge Niederschlagsart
Mi, 11.12. 1:00 0.0 l/m2 in 6 Std. -
Di, 10.12. 19:00 0.0 l/m2 in 12 Std. -
Di, 10.12. 13:00 0.0 l/m2 in 6 Std. -
Di, 10.12. 7:00 0.1 l/m2 in 12 Std. -
Di, 10.12. 1:00 0.1 l/m2 in 6 Std. Regen
Mo, 09.12. 19:00 0.1 l/m2 in 12 Std. Regen
Mo, 09.12. 13:00 0.0 l/m2 in 6 Std. -
Mo, 09.12. 7:00 1 l/m2 in 12 Std. Regen
Ortszeit Niederschlagsmenge Niederschlagsart
Mi, 11.12. 2:00 0.0 l/m2 in 1 Std. -
Mi, 11.12. 1:40 keine Meldung -
Mi, 11.12. 1:30 0.0 l/m2 in 1 Std. -
Mi, 11.12. 1:20 keine Meldung -
Mi, 11.12. 1:10 keine Meldung -
Mi, 11.12. 1:00 0.0 l/m2 in 1 Std. -
Mi, 11.12. 0:40 keine Meldung -
Mi, 11.12. 0:30 0.0 l/m2 in 1 Std. -
Mi, 11.12. 0:00 0.0 l/m2 in 1 Std. -
Ortszeit Stärke Spitze Richtung
km/h Bft. km/h Grad Sektor
Mi, 11.12. 1:00 14 3 29 170° S
Di, 10.12. 19:00 13 3 20 190° S
Di, 10.12. 13:00 11 2 32 260° W
Di, 10.12. 7:00 22 4 43 290° W
Di, 10.12. 1:00 22 4 47 280° W
Mo, 09.12. 19:00 13 3 31 210° SW
Mo, 09.12. 13:00 22 4 40 230° SW
Mo, 09.12. 7:00 19 3 35 210° SW
Ortszeit Stärke Spitze Richtung
km/h Bft. km/h Grad Sektor
Mi, 11.12. 2:00 20 4 30 180° S
Mi, 11.12. 1:40 20 4 - 180° S
Mi, 11.12. 1:30 18 3 29 180° S
Mi, 11.12. 1:20 18 3 - 180° S
Mi, 11.12. 1:10 17 3 - 180° S
Mi, 11.12. 1:00 14 3 22 170° S
Mi, 11.12. 0:40 15 3 - 170° S
Mi, 11.12. 0:30 15 3 20 180° S
Mi, 11.12. 0:00 17 3 28 160° S
Ortszeit Untergrenze Bedeckung Gattung
total tief tief mittel hoch
Mi, 11.12. 1:00 9000 m 8/8 0/8 - - -
Di, 10.12. 19:00 - 0/8 0/8 - - -
Di, 10.12. 13:00 - 0/8 0/8 - - -
Di, 10.12. 7:00 - 0/8 0/8 - - -
Di, 10.12. 1:00 750 m 2/8 1/8 - - -
Mo, 09.12. 19:00 660 m 7/8 7/8 - - -
Mo, 09.12. 13:00 1500 m 7/8 7/8 - - -
Mo, 09.12. 7:00 - 0/8 0/8 - - -
Ortszeit Bedeckungsgrad in Achtel und Wolkenuntergrenze
Mi, 11.12. 2:00 6(9000m) 6(10500m) 8(10500m)
Mi, 11.12. 1:40 4(9000m) 8(10500m)
Mi, 11.12. 1:30 3(9000m) 8(10500m)
Mi, 11.12. 1:20 3(9000m) 8(10500m)
Mi, 11.12. 1:10 3(9000m) 8(10500m) 8(10500m)
Mi, 11.12. 1:00 1(9000m) 7(10500m) 8(10500m)
Mi, 11.12. 0:40 3(9000m) 7(10500m) 8(10500m)
Mi, 11.12. 0:30 4(9000m) 7(10500m) 7(10500m)
Mi, 11.12. 0:00 5(9000m) 7(10500m) 8(10500m)
Ortszeit Luftdruck NN (hPa) Tendenz (hPa in 3 Std.)
Mi, 11.12. 1:00 1017 - 3,1
Di, 10.12. 19:00 1022 - 0,5
Di, 10.12. 13:00 1022 + 1,7
Di, 10.12. 7:00 1016 + 4,4
Di, 10.12. 1:00 1007 + 4,0
Mo, 09.12. 19:00 1000 + 1,6
Mo, 09.12. 13:00 997 + 0,2
Mo, 09.12. 7:00 995 + 1,0
Ortszeit Luftdruck NN (hPa) Tendenz (hPa in 3 Std.)
Mi, 11.12. 2:00 1016 - 3,1
Mi, 11.12. 1:40 1017 keine Meldung
Mi, 11.12. 1:30 1017 - 3,1
Mi, 11.12. 1:20 1017 keine Meldung
Mi, 11.12. 1:10 1017 keine Meldung
Mi, 11.12. 1:00 1017 - 3,1
Mi, 11.12. 0:40 1018 keine Meldung
Mi, 11.12. 0:30 1018 - 2,5
Mi, 11.12. 0:00 1018 - 2,5
Ortszeit Schneehöhe (cm)
Mi, 11.12. 1:00 0
Di, 10.12. 19:00 0
Di, 10.12. 13:00 0
Di, 10.12. 7:00 0
Di, 10.12. 1:00 0
Mo, 09.12. 19:00 0
Mo, 09.12. 13:00 0
Mo, 09.12. 7:00 0
Ortszeit Schneehöhe (cm)
Mi, 11.12. 2:00 0
Mi, 11.12. 1:40 0
Mi, 11.12. 1:30 0
Mi, 11.12. 1:20 0
Mi, 11.12. 1:10 0
Mi, 11.12. 1:00 0
Mi, 11.12. 0:40 0
Mi, 11.12. 0:30 0
Mi, 11.12. 0:00 0
Link zu dieser Seite / Seite empfehlen

Das Wetter in ...